Terminal Aerodrome Forecast
Issued by NWS

Home | Current Version | Previous Version | Text Only | Print | Product List | Glossary On
Versions: 1 2 3 4 5 6 7 8 9 10 11 12 13 14
000
FTUS45 KABQ 302300
TAFGUP
TAF
KGUP 302338Z 3100/3124 03006KT 5SM -SNRA BR SCT005 OVC015
     FM310400 16005KT 3SM -SN BR OVC015
     FM310600 VRB04KT 2SM -SN BR OVC005
     FM311000 23006KT 5SM BR OVC012
     FM311800 24006KT P6SM BKN030=

USA.gov is the U.S. government's official web portal to all federal, state and local government web resources and services.